createdAt,value
2023-05-06T00:02:18.713Z,11.85
2023-05-06T00:04:45.754Z,11.55
2023-05-06T00:07:13.258Z,10.75
2023-05-06T00:09:40.162Z,10.80
2023-05-06T00:12:07.103Z,11.13
2023-05-06T00:14:34.074Z,11.25
2023-05-06T00:17:04.032Z,11.43
2023-05-06T00:19:31.383Z,11.77
2023-05-06T00:21:59.155Z,11.90
2023-05-06T00:24:26.232Z,11.07
2023-05-06T00:26:53.543Z,11.40
2023-05-06T00:29:21.300Z,10.77
2023-05-06T00:31:48.647Z,10.75
2023-05-06T00:34:17.556Z,10.35
2023-05-06T00:36:44.926Z,9.98
2023-05-06T00:39:11.812Z,10.90
2023-05-06T00:41:38.715Z,10.20
2023-05-06T00:44:05.969Z,10.77
2023-05-06T00:46:33.605Z,11.13
2023-05-06T00:49:00.638Z,12.07
2023-05-06T00:51:28.249Z,11.90
2023-05-06T00:53:55.233Z,13.00
2023-05-06T00:56:22.433Z,13.27
2023-05-06T00:58:49.494Z,13.57
2023-05-06T01:01:17.898Z,12.52
2023-05-06T01:03:44.947Z,13.48
2023-05-06T01:06:31.774Z,13.57
2023-05-06T01:09:24.831Z,13.90
2023-05-06T01:12:09.778Z,14.50
2023-05-06T01:14:45.415Z,14.27
2023-05-06T01:17:18.608Z,13.98
2023-05-06T01:19:53.583Z,13.48
2023-05-06T01:22:21.184Z,13.65
2023-05-06T01:24:49.349Z,13.13
2023-05-06T01:27:19.686Z,13.68
2023-05-06T01:29:49.124Z,15.00
2023-05-06T01:32:19.532Z,13.73
2023-05-06T01:35:00.222Z,14.57
2023-05-06T01:37:38.845Z,14.27
2023-05-06T01:40:07.916Z,14.77
2023-05-06T01:42:36.423Z,14.18
2023-05-06T01:45:17.956Z,13.52
2023-05-06T01:50:13.290Z,13.82
2023-05-06T01:52:40.549Z,13.93
2023-05-06T01:55:08.380Z,14.10
2023-05-06T01:57:35.994Z,14.02
2023-05-06T02:00:04.390Z,14.57
2023-05-06T02:02:31.357Z,14.82
2023-05-06T02:04:58.318Z,14.02
2023-05-06T02:07:25.196Z,15.02
2023-05-06T02:09:54.606Z,16.30
2023-05-06T02:12:23.024Z,16.33
2023-05-06T02:14:49.950Z,16.85
2023-05-06T02:17:19.463Z,16.63
2023-05-06T02:19:55.380Z,18.08
2023-05-06T02:22:29.805Z,17.98
2023-05-06T02:24:56.760Z,18.48
2023-05-06T02:27:23.916Z,18.48
2023-05-06T02:29:51.506Z,18.35
2023-05-06T02:32:21.705Z,18.48
2023-05-06T02:34:48.800Z,18.42
2023-05-06T02:37:15.931Z,19.02
2023-05-06T02:39:44.258Z,20.45
2023-05-06T02:42:14.726Z,17.95
2023-05-06T02:44:42.233Z,18.67
2023-05-06T02:47:09.091Z,19.10
2023-05-06T02:49:36.322Z,18.63
2023-05-06T02:52:03.333Z,19.63
2023-05-06T02:54:30.342Z,21.27
2023-05-06T02:56:57.302Z,22.33
2023-05-06T02:59:24.251Z,22.23
2023-05-06T03:01:51.334Z,21.73
2023-05-06T03:04:19.036Z,24.70
2023-05-06T03:06:58.944Z,23.02
2023-05-06T03:09:26.063Z,23.10
2023-05-06T03:11:53.195Z,23.58
2023-05-06T03:14:21.806Z,23.45
2023-05-06T03:16:48.847Z,26.38
2023-05-06T03:19:17.222Z,25.55
2023-05-06T03:21:44.537Z,24.40
2023-05-06T03:24:11.566Z,23.77
2023-05-06T03:26:38.382Z,25.42
2023-05-06T03:29:05.453Z,25.30
2023-05-06T03:31:32.550Z,26.25
2023-05-06T03:34:00.447Z,26.98
2023-05-06T03:36:28.038Z,28.35
2023-05-06T03:41:51.978Z,26.77
2023-05-06T03:44:21.302Z,26.98
2023-05-06T03:46:48.511Z,26.63
2023-05-06T03:49:15.544Z,26.92
2023-05-06T03:51:44.932Z,24.63
2023-05-06T03:54:12.066Z,24.80
2023-05-06T03:56:38.912Z,24.70
2023-05-06T03:59:07.270Z,25.33
2023-05-06T04:01:34.318Z,25.63
2023-05-06T04:04:04.294Z,26.52
2023-05-06T04:06:33.842Z,24.25
2023-05-06T04:09:00.815Z,23.08
2023-05-06T04:11:29.696Z,24.77
2023-05-06T04:13:59.405Z,23.85
2023-05-06T04:16:30.778Z,23.58
2023-05-06T04:18:58.773Z,23.23
2023-05-06T04:21:27.034Z,23.65
2023-05-06T04:23:54.779Z,24.55
2023-05-06T04:26:23.352Z,25.90
2023-05-06T04:28:51.003Z,26.35
2023-05-06T04:31:21.146Z,24.88
2023-05-06T04:33:52.193Z,25.15
2023-05-06T04:36:22.614Z,25.60
2023-05-06T04:38:52.386Z,25.10
2023-05-06T04:41:23.941Z,27.35
2023-05-06T04:46:21.524Z,24.38
2023-05-06T04:48:49.924Z,22.63
2023-05-06T04:51:18.862Z,22.35
2023-05-06T04:53:46.781Z,23.08
2023-05-06T04:56:13.991Z,23.67
2023-05-06T04:58:40.956Z,23.85
2023-05-06T05:01:12.333Z,24.33
2023-05-06T05:03:40.453Z,23.55
2023-05-06T05:06:08.626Z,25.75
2023-05-06T05:08:39.243Z,26.55
2023-05-06T05:11:10.791Z,28.03
2023-05-06T05:16:12.830Z,31.60
2023-05-06T05:18:40.001Z,32.35
2023-05-06T05:21:08.729Z,33.90
2023-05-06T05:23:35.875Z,34.83
2023-05-06T05:26:03.733Z,33.72
2023-05-06T05:28:31.342Z,29.33
2023-05-06T05:31:06.084Z,27.98
2023-05-06T05:33:33.756Z,25.83
2023-05-06T05:36:01.526Z,24.10
2023-05-06T05:38:29.345Z,22.60
2023-05-06T05:40:56.444Z,22.83
2023-05-06T05:43:26.004Z,22.88
2023-05-06T05:45:53.594Z,24.20
2023-05-06T05:48:21.374Z,22.65
2023-05-06T05:50:48.172Z,22.35
2023-05-06T05:53:15.268Z,22.08
2023-05-06T05:55:42.118Z,21.40
2023-05-06T05:58:14.170Z,19.40
2023-05-06T06:00:41.090Z,21.75
2023-05-06T06:03:08.675Z,22.65
2023-05-06T06:05:37.066Z,22.98
2023-05-06T06:08:04.481Z,21.55
2023-05-06T06:10:33.581Z,16.77
2023-05-06T06:13:03.442Z,21.20
2023-05-06T06:15:34.369Z,23.88
2023-05-06T06:18:02.317Z,20.92
2023-05-06T06:20:31.857Z,22.85
2023-05-06T06:22:59.142Z,23.10
2023-05-06T06:25:26.339Z,23.35
2023-05-06T06:27:56.072Z,20.55
2023-05-06T06:30:26.618Z,21.33
2023-05-06T06:32:54.559Z,21.50
2023-05-06T06:35:23.784Z,21.45
2023-05-06T06:37:50.718Z,20.30
2023-05-06T06:40:17.682Z,20.08
2023-05-06T06:42:44.781Z,20.20
2023-05-06T06:45:12.177Z,20.20
2023-05-06T06:47:39.450Z,19.58
2023-05-06T06:50:08.871Z,20.30
2023-05-06T06:52:37.545Z,19.10
2023-05-06T06:55:06.594Z,18.80
2023-05-06T06:57:33.524Z,18.08
2023-05-06T07:00:01.499Z,18.73
2023-05-06T07:02:29.267Z,18.33
2023-05-06T07:04:56.528Z,18.85
2023-05-06T07:07:23.458Z,17.55
2023-05-06T07:09:50.710Z,17.80
2023-05-06T07:12:20.016Z,17.25
2023-05-06T07:14:46.966Z,19.40
2023-05-06T07:17:16.705Z,17.95
2023-05-06T07:19:43.741Z,17.45
2023-05-06T07:22:10.901Z,17.73
2023-05-06T07:24:38.135Z,17.52
2023-05-06T07:27:05.071Z,17.17
2023-05-06T07:29:31.991Z,17.20
2023-05-06T07:31:58.951Z,16.85
2023-05-06T07:34:48.809Z,17.60
2023-05-06T07:37:18.270Z,17.58
2023-05-06T07:39:45.323Z,17.65
2023-05-06T07:42:13.523Z,17.95
2023-05-06T07:44:43.403Z,17.52
2023-05-06T07:47:31.804Z,17.58
2023-05-06T07:50:08.725Z,25.02
2023-05-06T07:52:35.855Z,20.50
2023-05-06T07:55:04.126Z,18.38
2023-05-06T07:57:34.251Z,16.70
2023-05-06T08:00:01.225Z,17.10
2023-05-06T08:02:28.312Z,16.70
2023-05-06T08:04:55.869Z,19.27
2023-05-06T08:07:22.768Z,19.15
2023-05-06T08:09:49.707Z,20.83
2023-05-06T08:12:17.854Z,21.70
2023-05-06T08:14:45.070Z,22.05
2023-05-06T08:17:13.304Z,21.80
2023-05-06T08:19:40.290Z,20.58
2023-05-06T08:22:11.681Z,19.77
2023-05-06T08:24:38.549Z,19.80
2023-05-06T08:27:05.687Z,19.42
2023-05-06T08:29:32.509Z,18.63
2023-05-06T08:32:01.537Z,17.88
2023-05-06T08:34:29.682Z,19.40
2023-05-06T08:36:56.845Z,19.75
2023-05-06T08:39:26.014Z,24.02
2023-05-06T08:41:54.546Z,19.13
2023-05-06T08:44:25.572Z,19.55
2023-05-06T08:46:54.504Z,18.00
2023-05-06T08:49:24.121Z,17.92
2023-05-06T08:51:56.034Z,17.70
2023-05-06T08:54:26.199Z,16.02
2023-05-06T08:56:57.399Z,16.05
2023-05-06T09:01:53.283Z,15.95
2023-05-06T09:04:20.386Z,15.93
2023-05-06T09:06:47.289Z,13.55
2023-05-06T09:09:17.276Z,14.80
2023-05-06T09:11:53.501Z,14.20
2023-05-06T09:14:21.793Z,14.27
2023-05-06T09:16:50.982Z,14.40
2023-05-06T09:19:21.299Z,12.60
2023-05-06T09:21:51.132Z,12.60
2023-05-06T09:24:18.387Z,13.25
2023-05-06T09:26:46.418Z,14.52
2023-05-06T09:29:13.977Z,12.40
2023-05-06T09:31:44.314Z,11.45
2023-05-06T09:34:12.431Z,9.63
2023-05-06T09:36:40.649Z,8.02
2023-05-06T09:39:07.853Z,6.82
2023-05-06T09:41:35.470Z,6.22
2023-05-06T09:44:02.479Z,6.13
2023-05-06T09:46:29.915Z,7.25
2023-05-06T09:48:58.232Z,4.90
2023-05-06T09:51:27.821Z,7.05
2023-05-06T09:53:57.685Z,5.28
2023-05-06T09:56:26.473Z,5.75
2023-05-06T09:58:55.066Z,5.57
2023-05-06T10:01:35.190Z,6.03
2023-05-06T10:04:08.166Z,5.40
2023-05-06T10:06:37.565Z,4.10
2023-05-06T10:14:19.922Z,3.72
2023-05-06T10:16:49.683Z,3.55
2023-05-06T10:19:24.314Z,2.80
2023-05-06T10:22:03.412Z,4.13
2023-05-06T10:24:37.290Z,4.40
2023-05-06T10:27:06.437Z,3.60
2023-05-06T10:29:37.694Z,4.18
2023-05-06T10:32:05.204Z,4.22
2023-05-06T10:34:39.026Z,4.53
2023-05-06T10:37:06.433Z,5.05
2023-05-06T10:39:33.620Z,4.80
2023-05-06T10:42:01.984Z,4.15
2023-05-06T10:45:07.210Z,4.63
2023-05-06T10:47:54.590Z,5.25
2023-05-06T10:50:26.476Z,5.47
2023-05-06T10:52:59.380Z,5.25
2023-05-06T10:56:07.268Z,4.32
2023-05-06T10:58:36.569Z,4.53
2023-05-06T11:01:03.542Z,4.38
2023-05-06T11:03:34.581Z,4.30
2023-05-06T11:06:02.131Z,3.90
2023-05-06T11:08:30.434Z,4.80
2023-05-06T11:10:57.453Z,3.95
2023-05-06T11:13:29.415Z,4.18
2023-05-06T11:15:57.694Z,4.93
2023-05-06T11:18:24.956Z,3.80
2023-05-06T11:21:02.681Z,3.55
2023-05-06T11:23:55.045Z,4.22
2023-05-06T11:26:21.993Z,3.22
2023-05-06T11:28:51.269Z,3.67
2023-05-06T11:31:21.702Z,3.75
2023-05-06T11:33:50.048Z,3.78
2023-05-06T11:36:21.358Z,3.67
2023-05-06T11:38:53.328Z,2.97
2023-05-06T11:41:22.301Z,2.80
2023-05-06T11:43:52.741Z,3.55
2023-05-06T11:46:22.599Z,5.13
2023-05-06T11:48:50.674Z,4.28
2023-05-06T11:51:22.877Z,4.25
2023-05-06T11:53:50.095Z,3.80
2023-05-06T11:56:17.102Z,4.60
2023-05-06T11:58:44.345Z,4.10
2023-05-06T12:01:11.246Z,3.92
2023-05-06T12:03:38.669Z,4.47
2023-05-06T12:06:05.867Z,4.45
2023-05-06T12:08:34.839Z,4.20
2023-05-06T12:11:03.838Z,4.40
2023-05-06T12:13:39.146Z,3.70
2023-05-06T12:16:09.380Z,3.80
2023-05-06T12:18:36.507Z,3.55
2023-05-06T12:21:11.917Z,3.10
2023-05-06T12:23:54.103Z,2.70
2023-05-06T12:26:22.362Z,2.97
2023-05-06T12:29:10.849Z,3.53
2023-05-06T12:31:37.964Z,3.58
2023-05-06T12:34:05.577Z,3.88
2023-05-06T12:36:33.028Z,3.63
2023-05-06T12:39:01.831Z,2.67
2023-05-06T12:41:46.946Z,4.55
2023-05-06T12:44:36.991Z,6.00
2023-05-06T12:47:09.174Z,3.35
2023-05-06T12:50:12.089Z,3.88
2023-05-06T12:52:44.868Z,3.70
2023-05-06T12:55:11.763Z,3.88
2023-05-06T12:57:38.592Z,4.47
2023-05-06T13:00:07.447Z,4.28
2023-05-06T13:02:34.736Z,4.55
2023-05-06T13:05:03.650Z,5.15
2023-05-06T13:07:30.583Z,5.45
2023-05-06T13:09:57.807Z,5.55
2023-05-06T13:12:24.822Z,5.05
2023-05-06T13:14:52.336Z,6.40
2023-05-06T13:17:19.662Z,5.43
2023-05-06T13:19:47.908Z,6.07
2023-05-06T13:22:14.996Z,5.13
2023-05-06T13:24:43.798Z,5.40
2023-05-06T13:27:10.861Z,4.50
2023-05-06T13:29:38.174Z,5.10
2023-05-06T13:32:09.217Z,5.95
2023-05-06T13:34:37.814Z,5.25
2023-05-06T13:37:04.992Z,4.93
2023-05-06T13:39:31.953Z,5.18
2023-05-06T13:41:59.849Z,5.60
2023-05-06T13:44:26.934Z,4.45
2023-05-06T13:49:39.024Z,4.20
2023-05-06T13:52:07.980Z,4.05
2023-05-06T13:54:37.765Z,9.02
2023-05-06T13:57:04.849Z,3.20
2023-05-06T13:59:31.747Z,2.40
2023-05-06T14:02:01.398Z,2.38
2023-05-06T14:04:28.848Z,2.67
2023-05-06T14:06:58.698Z,3.00
2023-05-06T14:09:25.676Z,2.83
2023-05-06T14:11:53.961Z,2.33
2023-05-06T14:14:22.725Z,2.92
2023-05-06T14:16:53.469Z,2.72
2023-05-06T14:19:25.789Z,2.35
2023-05-06T14:21:52.725Z,1.85
2023-05-06T14:24:24.069Z,2.42
2023-05-06T14:27:05.366Z,3.78
2023-05-06T14:29:32.373Z,3.88
2023-05-06T14:31:59.310Z,4.20
2023-05-06T14:34:36.807Z,3.35
2023-05-06T14:37:08.644Z,3.60
2023-05-06T14:39:39.338Z,3.55
2023-05-06T14:42:06.667Z,3.33
2023-05-06T14:47:18.397Z,4.88
2023-05-06T14:49:53.067Z,4.97
2023-05-06T14:52:30.661Z,4.05
2023-05-06T14:54:58.016Z,3.80
2023-05-06T15:00:15.093Z,3.47
2023-05-06T15:02:42.076Z,3.28
2023-05-06T15:05:10.484Z,3.08
2023-05-06T15:07:37.757Z,3.38
2023-05-06T15:10:05.168Z,2.55
2023-05-06T15:12:32.136Z,3.28
2023-05-06T15:14:59.193Z,5.25
2023-05-06T15:17:29.188Z,4.85
2023-05-06T15:19:57.422Z,3.40
2023-05-06T15:22:35.897Z,3.03
2023-05-06T15:25:04.373Z,3.30
2023-05-06T15:27:32.511Z,3.00
2023-05-06T15:30:04.833Z,2.70
2023-05-06T15:32:32.649Z,3.20
2023-05-06T15:34:59.643Z,2.85
2023-05-06T15:37:29.345Z,3.72
2023-05-06T15:39:57.763Z,2.85
2023-05-06T15:42:24.703Z,2.80
2023-05-06T15:44:53.486Z,3.25
2023-05-06T15:47:20.896Z,3.30
2023-05-06T15:49:54.338Z,3.35
2023-05-06T15:52:34.581Z,3.70
2023-05-06T15:55:01.839Z,2.85
2023-05-06T15:57:34.443Z,3.03
2023-05-06T16:00:04.547Z,2.70
2023-05-06T16:02:32.864Z,3.10
2023-05-06T16:05:01.105Z,2.58
2023-05-06T16:07:29.508Z,2.33
2023-05-06T16:09:56.750Z,2.45
2023-05-06T16:12:23.583Z,2.70
2023-05-06T16:14:51.836Z,3.60
2023-05-06T16:17:18.685Z,3.50
2023-05-06T16:19:45.574Z,2.50
2023-05-06T16:22:13.083Z,3.00
2023-05-06T16:24:40.160Z,2.80
2023-05-06T16:27:07.139Z,2.47
2023-05-06T16:29:35.448Z,3.70
2023-05-06T16:32:02.656Z,11.13
2023-05-06T16:34:32.201Z,3.47
2023-05-06T16:37:00.670Z,2.63
2023-05-06T16:39:28.452Z,2.83
2023-05-06T16:41:55.696Z,3.15
2023-05-06T16:44:22.671Z,2.45
2023-05-06T16:46:52.069Z,3.58
2023-05-06T16:49:21.600Z,3.50
2023-05-06T16:51:53.466Z,2.53
2023-05-06T16:54:21.188Z,2.90
2023-05-06T16:56:52.611Z,2.35
2023-05-06T16:59:22.677Z,2.83
2023-05-06T17:01:51.419Z,3.13
2023-05-06T17:04:18.675Z,3.40
2023-05-06T17:06:48.458Z,2.80
2023-05-06T17:09:22.606Z,3.40
2023-05-06T17:11:50.726Z,2.33
2023-05-06T17:14:17.581Z,2.70
2023-05-06T17:16:47.261Z,2.33
2023-05-06T17:19:26.392Z,2.13
2023-05-06T17:21:53.677Z,2.28
2023-05-06T17:24:35.385Z,2.60
2023-05-06T17:27:04.343Z,1.88
2023-05-06T17:29:32.908Z,1.60
2023-05-06T17:32:00.850Z,1.98
2023-05-06T17:34:30.017Z,1.92
2023-05-06T17:37:00.509Z,1.42
2023-05-06T17:39:31.816Z,1.83
2023-05-06T17:42:11.714Z,1.90
2023-05-06T17:44:49.858Z,1.70
2023-05-06T17:50:02.427Z,2.80
2023-05-06T17:52:29.607Z,3.45
2023-05-06T17:55:11.301Z,4.32
2023-05-06T17:57:42.980Z,4.63
2023-05-06T18:00:15.747Z,4.68
2023-05-06T18:02:43.399Z,5.72
2023-05-06T18:05:12.331Z,5.35
2023-05-06T18:07:40.722Z,5.97
2023-05-06T18:10:11.351Z,5.25
2023-05-06T18:12:38.647Z,6.38
2023-05-06T18:15:11.042Z,6.30
2023-05-06T18:17:41.067Z,6.07
2023-05-06T18:20:10.439Z,5.72
2023-05-06T18:22:39.994Z,6.35
2023-05-06T18:25:09.230Z,6.45
2023-05-06T18:27:37.632Z,6.72
2023-05-06T18:30:06.368Z,7.45
2023-05-06T18:32:34.777Z,7.07
2023-05-06T18:35:01.904Z,6.20
2023-05-06T18:37:29.629Z,7.47
2023-05-06T18:39:56.853Z,7.40
2023-05-06T18:42:27.376Z,7.90
2023-05-06T18:44:56.370Z,8.70
2023-05-06T18:47:37.012Z,8.95
2023-05-06T18:50:05.251Z,8.43
2023-05-06T18:52:33.504Z,8.20
2023-05-06T18:55:00.365Z,9.13
2023-05-06T18:57:32.908Z,8.32
2023-05-06T19:00:00.304Z,9.07
2023-05-06T19:02:30.049Z,8.50
2023-05-06T19:04:58.239Z,9.10
2023-05-06T19:07:26.181Z,9.23
2023-05-06T19:09:52.978Z,8.95
2023-05-06T19:12:24.199Z,8.18
2023-05-06T19:14:53.610Z,9.70
2023-05-06T19:20:02.600Z,9.07
2023-05-06T19:22:33.742Z,9.23
2023-05-06T19:25:02.362Z,9.90
2023-05-06T19:27:32.618Z,10.23
2023-05-06T19:30:28.481Z,9.65
2023-05-06T19:32:57.488Z,11.02
2023-05-06T19:35:27.599Z,10.48
2023-05-06T19:37:54.464Z,10.25
2023-05-06T19:40:22.546Z,10.90
2023-05-06T19:42:55.016Z,11.13
2023-05-06T19:45:23.993Z,11.93
2023-05-06T19:47:50.829Z,11.48
2023-05-06T19:50:17.933Z,12.57
2023-05-06T19:52:45.013Z,12.35
2023-05-06T19:55:13.123Z,13.48
2023-05-06T19:57:40.347Z,13.93
2023-05-06T20:00:10.945Z,13.43
2023-05-06T20:02:39.029Z,13.95
2023-05-06T20:05:06.763Z,13.63
2023-05-06T20:07:34.086Z,13.20
2023-05-06T20:10:01.260Z,13.90
2023-05-06T20:12:28.179Z,14.15
2023-05-06T20:14:56.148Z,14.15
2023-05-06T20:17:24.062Z,14.60
2023-05-06T20:19:52.678Z,15.10
2023-05-06T20:22:22.311Z,15.95
2023-05-06T20:24:49.784Z,17.30
2023-05-06T20:27:17.004Z,15.60
2023-05-06T20:29:51.230Z,16.95
2023-05-06T20:32:19.717Z,15.45
2023-05-06T20:34:46.657Z,15.18
2023-05-06T20:37:14.794Z,14.88
2023-05-06T20:39:41.701Z,14.90
2023-05-06T20:42:09.852Z,16.13
2023-05-06T20:44:38.184Z,15.27
2023-05-06T20:47:10.669Z,17.08
2023-05-06T20:49:43.354Z,15.60
2023-05-06T20:52:14.628Z,16.85
2023-05-06T20:57:12.191Z,18.38
2023-05-06T20:59:39.469Z,16.67
2023-05-06T21:02:06.692Z,16.75
2023-05-06T21:04:34.031Z,17.48
2023-05-06T21:07:01.630Z,17.23
2023-05-06T21:09:30.258Z,17.92
2023-05-06T21:11:57.174Z,16.95
2023-05-06T21:14:27.921Z,18.92
2023-05-06T21:16:55.539Z,17.15
2023-05-06T21:19:24.459Z,17.50
2023-05-06T21:21:51.726Z,17.80
2023-05-06T21:24:22.867Z,17.98
2023-05-06T21:26:52.219Z,17.95
2023-05-06T21:29:21.627Z,18.83
2023-05-06T21:31:49.763Z,17.02
2023-05-06T21:34:17.409Z,18.08
2023-05-06T21:36:47.123Z,18.13
2023-05-06T21:39:14.643Z,19.10
2023-05-06T21:41:41.645Z,18.75
2023-05-06T21:44:09.392Z,18.20
2023-05-06T21:46:38.253Z,18.80
2023-05-06T21:49:07.082Z,18.92
2023-05-06T21:51:36.267Z,18.80
2023-05-06T21:54:03.805Z,17.88
2023-05-06T21:56:31.786Z,20.42
2023-05-06T21:58:58.936Z,19.70
2023-05-06T22:01:29.410Z,19.30
2023-05-06T22:03:58.569Z,19.77
2023-05-06T22:06:25.706Z,19.63
2023-05-06T22:08:52.622Z,19.15
2023-05-06T22:11:23.911Z,20.55
2023-05-06T22:13:53.865Z,19.42
2023-05-06T22:16:20.938Z,19.58
2023-05-06T22:18:48.901Z,19.58
2023-05-06T22:21:15.937Z,20.00
2023-05-06T22:23:43.031Z,19.38
2023-05-06T22:26:10.050Z,21.58
2023-05-06T22:28:40.115Z,21.85
2023-05-06T22:31:08.568Z,22.38
2023-05-06T22:33:35.532Z,21.38
2023-05-06T22:36:02.380Z,20.10
2023-05-06T22:38:29.632Z,19.33
2023-05-06T22:40:56.849Z,19.05
2023-05-06T22:43:23.806Z,19.25
2023-05-06T22:45:51.840Z,18.98
2023-05-06T22:48:18.654Z,19.88
2023-05-06T22:50:46.872Z,18.63
2023-05-06T22:53:15.760Z,19.08
2023-05-06T22:55:43.876Z,17.67
2023-05-06T22:58:10.979Z,17.33
2023-05-06T23:00:37.893Z,18.00
2023-05-06T23:03:06.076Z,17.83
2023-05-06T23:05:34.270Z,18.40
2023-05-06T23:08:01.177Z,18.33
2023-05-06T23:10:28.026Z,16.52
2023-05-06T23:12:59.105Z,17.02
2023-05-06T23:15:28.492Z,15.90
2023-05-06T23:17:56.903Z,16.67
2023-05-06T23:20:25.075Z,16.83
2023-05-06T23:22:52.068Z,16.35
2023-05-06T23:25:19.140Z,15.07
2023-05-06T23:27:45.982Z,15.93
2023-05-06T23:30:13.653Z,15.95
2023-05-06T23:32:41.267Z,14.68
2023-05-06T23:35:08.703Z,14.98
2023-05-06T23:37:36.149Z,15.70
2023-05-06T23:40:04.918Z,15.30
2023-05-06T23:42:33.743Z,14.63
2023-05-06T23:45:01.023Z,15.10
2023-05-06T23:47:27.973Z,14.13
2023-05-06T23:49:56.282Z,13.88
2023-05-06T23:52:23.139Z,15.95
2023-05-06T23:54:50.260Z,13.65
2023-05-06T23:57:17.229Z,14.15
2023-05-06T23:59:44.461Z,14.73
